KPHL/PHL METAR and TAF weather

Enter ICAO airport designator
Station Type Date Time Source
KPHL METAR 2021/09/16 20:54 UTC NOAA

KPHL 162054Z 08013KT 10SM BKN024 BKN045 OVC250 24/19 A3016 RMK AO2 SLP212 T02440194 53000


Station Type Date Time Source
KPHL Decoded METAR 2021/09/16 20:54 UTC NOAA

PHILADELPHIA INTERNATIONAL AIRPT, PA, United States (KPHL) 39-52N 075-14W 18M
Sep 16, 2021 - 04:54 PM EDT / 2021.09.16 2054 UTC
Wind: from the E (080 degrees) at 15 MPH (13 KT):0
Visibility: 10 mile(s):0
Sky conditions: overcast
Temperature: 75.9 F (24.4 C)
Dew Point: 66.9 F (19.4 C)
Relative Humidity: 73%
Pressure (altimeter): 30.16 in. Hg (1021 hPa)
Pressure tendency: 0.00 inches (0.0 hPa) higher than three hours ago
ob: KPHL 162054Z 08013KT 10SM BKN024 BKN045 OVC250 24/19 A3016 RMK AO2 SLP212 T02440194 53000
cycle: 21

Station Type Date Time Source
KPHL TAF 2021/09/16 21:52 UTC NOAA

TAF
AMD KPHL 162045Z 1621/1724 06011KT P6SM OVC025
TEMPO 1621/1624 BKN040
FM170000 08008KT P6SM OVC020
FM170400 07005KT P6SM BKN008
FM171600 06007KT P6SM BKN015
FM172300 05006KT P6SM BKN035

Example: see airport list